Terminal Aerodrome Forecast
Issued by NWS North Platte, NE

Home | Current Version | Previous Version | Text Only | Print | Product List | Glossary Off
Versions: 1 2 3 4 5 6 7 8 9 10 11 12 13 14 15

412
FTUS43 KLBF 181441 AAA
TAFVTN
TAF AMD
KVTN 181441Z 1815/1912 35016G28KT P6SM SCT250
     FM181900 34011KT P6SM FEW250
     FM182200 VRB06KT P6SM SKC
     FM190900 VRB06KT P6SM SKC WS005/20033KT=

USA.gov is the U.S. government's official web portal to all federal, state and local government web resources and services.